Time;durP1;ratioP1;P1;durP2;ratioP2;P2;SDS_P1;SDS_P2;PMS_P1;PMS_P2;Temp;Humidity;BMP_temperature;BMP_pressure;BME280_temperature;BME280_humidity;BME280_pressure;Samples;Min_cycle;Max_cycle;Signal;HPM_P1;HPM_P2
2022/09/01 02:04:32;;;;;;;;;5.25;3.50;;;;;25.34;100.00;101402.13;4386252;32;51049;-47
2022/09/01 02:07:17;;;;;;;;;6.50;4.00;;;;;25.47;100.00;101416.00;5118431;27;51039;-47
2022/09/01 02:10:02;;;;;;;;;5.75;3.00;;;;;25.57;100.00;101410.03;5117926;27;51071;-48
2022/09/01 02:12:47;;;;;;;;;5.00;3.00;;;;;25.68;100.00;101411.19;5118054;27;51057;-47
2022/09/01 02:15:37;;;;;;;;;8.00;4.00;;;;;25.75;100.00;101411.72;5117689;27;51499;-46
2022/09/01 02:18:26;;;;;;;;;2.25;2.25;;;;;25.81;100.00;101416.84;5117594;27;51205;-48
2022/09/01 02:21:12;;;;;;;;;4.25;2.00;;;;;25.84;100.00;101422.09;5118271;27;51030;-46
2022/09/01 02:24:01;;;;;;;;;4.00;3.00;;;;;25.88;100.00;101424.66;5117791;27;51201;-47
2022/09/01 02:26:46;;;;;;;;;5.50;2.00;;;;;25.91;100.00;101419.03;5117890;27;51390;-47
2022/09/01 02:29:30;;;;;;;;;7.00;3.00;;;;;25.91;100.00;101417.16;5117318;27;51020;-47
2022/09/01 02:32:20;;;;;;;;;5.00;4.00;;;;;25.94;100.00;101413.38;5117915;27;51123;-48
2022/09/01 02:35:08;;;;;;;;;8.00;4.25;;;;;25.99;100.00;101419.47;5117546;27;51189;-47
2022/09/01 02:37:57;;;;;;;;;6.00;4.00;;;;;26.03;100.00;101417.44;5117581;27;51150;-49
2022/09/01 02:40:44;;;;;;;;;5.50;3.50;;;;;26.04;100.00;101420.06;5117285;27;51431;-46
2022/09/01 02:43:30;;;;;;;;;7.75;5.25;;;;;26.04;100.00;101417.31;5117105;27;51196;-48
2022/09/01 02:46:15;;;;;;;;;4.50;3.50;;;;;26.05;100.00;101418.22;5117673;27;51079;-50
2022/09/01 02:49:00;;;;;;;;;7.00;4.00;;;;;26.07;100.00;101413.56;5117133;27;51560;-47
2022/09/01 02:51:47;;;;;;;;;4.00;4.00;;;;;26.08;100.00;101416.19;5116966;27;51485;-49
2022/09/01 02:54:32;;;;;;;;;6.00;5.00;;;;;26.05;100.00;101405.44;5117007;27;51207;-48
2022/09/01 02:57:16;;;;;;;;;1.25;1.00;;;;;26.06;100.00;101415.41;5117450;27;51142;-47
2022/09/01 03:00:01;;;;;;;;;5.25;4.00;;;;;26.07;100.00;101410.84;5116891;27;50987;-47
2022/09/01 03:02:51;;;;;;;;;5.25;3.50;;;;;26.06;100.00;101407.22;5116543;27;51201;-46
2022/09/01 03:05:37;;;;;;;;;5.00;3.00;;;;;26.01;100.00;101400.25;5102743;27;51725;-46
2022/09/01 03:08:23;;;;;;;;;6.25;5.00;;;;;26.06;100.00;101417.25;5103176;27;51205;-46
2022/09/01 03:11:09;;;;;;;;;4.00;2.50;;;;;26.07;100.00;101416.28;5103444;27;51210;-46
2022/09/01 03:13:54;;;;;;;;;8.50;4.75;;;;;26.07;100.00;101422.59;5102839;27;51493;-46
2022/09/01 03:16:39;;;;;;;;;8.75;4.00;;;;;26.01;100.00;101409.34;5102867;27;51573;-47
2022/09/01 03:19:24;;;;;;;;;5.00;4.75;;;;;25.92;100.00;101386.22;5102956;27;51160;-48
2022/09/01 03:22:09;;;;;;;;;4.25;3.75;;;;;26.05;100.00;101401.84;5103089;27;51133;-48
2022/09/01 03:24:53;;;;;;;;;7.25;5.00;;;;;26.04;100.00;101413.72;5102620;27;51173;-48
2022/09/01 03:27:37;;;;;;;;;7.25;5.50;;;;;26.03;100.00;101407.41;5102553;27;51075;-47
2022/09/01 03:30:22;;;;;;;;;6.25;6.00;;;;;26.06;100.00;101409.94;5102941;27;51445;-46
2022/09/01 03:33:07;;;;;;;;;7.00;4.25;;;;;26.09;100.00;101406.16;5102560;27;51110;-47
2022/09/01 03:35:51;;;;;;;;;9.75;6.75;;;;;26.13;100.00;101413.22;5102768;27;50972;-47
2022/09/01 03:38:36;;;;;;;;;10.00;4.75;;;;;26.12;100.00;101406.00;5102492;27;51251;-46
2022/09/01 03:41:23;;;;;;;;;11.00;5.25;;;;;26.04;100.00;101403.69;5102515;27;51422;-48
2022/09/01 03:44:10;;;;;;;;;3.75;3.25;;;;;26.09;100.00;101419.78;5102236;27;51141;-47
2022/09/01 03:46:57;;;;;;;;;6.00;5.00;;;;;26.09;100.00;101415.25;5102587;27;51089;-47
2022/09/01 03:49:42;;;;;;;;;8.00;5.00;;;;;26.08;100.00;101420.78;5077293;27;51253;-47
2022/09/01 03:52:28;;;;;;;;;5.50;4.00;;;;;26.13;100.00;101429.59;5081833;27;51407;-49
2022/09/01 03:55:17;;;;;;;;;14.00;7.00;;;;;26.13;100.00;101444.13;5081731;27;51414;-48
2022/09/01 03:58:08;;;;;;;;;10.00;6.75;;;;;26.12;100.00;101436.91;5081549;27;51205;-49
2022/09/01 04:00:55;;;;;;;;;8.75;7.00;;;;;26.12;100.00;101444.19;5066480;27;51033;-48
2022/09/01 04:03:40;;;;;;;;;9.50;5.25;;;;;26.11;100.00;101442.44;5081354;27;51107;-49
2022/09/01 04:06:25;;;;;;;;;9.25;6.25;;;;;26.12;100.00;101441.47;5081722;27;51457;-50
2022/09/01 04:09:09;;;;;;;;;7.75;6.00;;;;;26.16;100.00;101450.34;5090055;27;51196;-48
2022/09/01 04:11:54;;;;;;;;;13.50;6.00;;;;;26.14;100.00;101442.25;5102144;27;51186;-48
2022/09/01 04:14:39;;;;;;;;;6.00;5.00;;;;;26.16;100.00;101445.78;5101795;27;51509;-50
2022/09/01 04:20:27;;;;;;;;;12.75;5.75;;;;;26.14;100.00;101434.94;5101768;27;51497;-49
2022/09/01 04:23:32;;;;;;;;;7.50;5.50;;;;;26.18;100.00;101448.41;5101351;27;51237;-47
2022/09/01 04:26:19;;;;;;;;;6.75;4.50;;;;;26.19;100.00;101461.06;5102066;27;51078;-46
2022/09/01 04:29:03;;;;;;;;;9.00;6.00;;;;;26.21;100.00;101465.47;5101144;27;51430;-46
2022/09/01 04:31:50;;;;;;;;;7.00;7.00;;;;;26.18;100.00;101470.22;5101593;27;51308;-47
2022/09/01 04:34:38;;;;;;;;;6.75;4.75;;;;;26.15;100.00;101465.84;5101234;27;51155;-49
2022/09/01 04:37:22;;;;;;;;;5.50;4.75;;;;;26.13;100.00;101474.13;5101859;27;51220;-47
2022/09/01 04:40:07;;;;;;;;;10.25;5.00;;;;;26.10;100.00;101466.09;5101057;27;51537;-49
2022/09/01 04:42:52;;;;;;;;;9.50;6.00;;;;;26.08;100.00;101465.28;5101390;27;51046;-48
2022/09/01 04:45:37;;;;;;;;;10.00;7.00;;;;;26.07;100.00;101460.78;5101201;27;51414;-47
2022/09/01 04:48:21;;;;;;;;;13.25;8.50;;;;;26.08;100.00;101465.28;5101137;27;51183;-51
2022/09/01 04:51:09;;;;;;;;;6.00;5.00;;;;;26.12;100.00;101461.44;5101170;27;51195;-47
2022/09/01 04:53:56;;;;;;;;;4.75;1.25;;;;;26.12;100.00;101463.28;5100940;27;51515;-46
2022/09/01 04:56:43;;;;;;;;;5.00;5.00;;;;;26.13;100.00;101474.13;5101009;27;51365;-50
2022/09/01 04:59:29;;;;;;;;;11.25;6.25;;;;;26.11;100.00;101475.16;5100993;27;51162;-47
2022/09/01 05:02:15;;;;;;;;;9.25;4.25;;;;;26.15;100.00;101474.03;5090696;27;51153;-47
2022/09/01 05:05:02;;;;;;;;;9.00;6.25;;;;;26.16;100.00;101486.69;5064851;27;51108;-47
2022/09/01 05:07:51;;;;;;;;;8.00;6.00;;;;;26.15;100.00;101487.66;5077973;27;51107;-48
2022/09/01 05:10:40;;;;;;;;;8.25;5.50;;;;;26.17;100.00;101487.56;5080458;27;51290;-47
2022/09/01 05:13:26;;;;;;;;;9.00;8.00;;;;;26.16;100.00;101485.78;5080057;27;51198;-46
2022/09/01 05:16:13;;;;;;;;;6.00;6.00;;;;;26.17;100.00;101498.47;5097939;27;51160;-49
2022/09/01 05:19:00;;;;;;;;;10.75;6.50;;;;;26.19;100.00;101497.41;5100695;27;51570;-49
2022/09/01 05:21:46;;;;;;;;;14.00;6.00;;;;;26.17;100.00;101495.75;5100582;27;51140;-46
2022/09/01 05:24:33;;;;;;;;;7.00;5.50;;;;;26.18;100.00;101509.31;5089536;27;51216;-47
2022/09/01 05:27:19;;;;;;;;;6.50;5.25;;;;;26.17;100.00;101503.91;5079695;27;51106;-48
2022/09/01 05:30:07;;;;;;;;;10.75;6.75;;;;;26.13;100.00;101501.41;5097822;27;51084;-48
2022/09/01 05:32:53;;;;;;;;;10.00;7.25;;;;;26.14;100.00;101511.31;5100259;27;51058;-47
2022/09/01 05:35:43;;;;;;;;;6.50;5.25;;;;;26.13;100.00;101516.88;5100280;27;51437;-50
2022/09/01 05:38:30;;;;;;;;;8.25;4.00;;;;;26.13;100.00;101503.22;5100270;27;51125;-47
2022/09/01 05:41:16;;;;;;;;;3.25;3.25;;;;;26.11;100.00;101507.88;5100794;27;51176;-47
2022/09/01 05:44:06;;;;;;;;;7.00;3.50;;;;;26.09;100.00;101491.63;5088307;27;51449;-47
2022/09/01 05:46:52;;;;;;;;;4.00;3.00;;;;;26.11;100.00;101502.44;5080131;27;51713;-48
2022/09/01 05:49:38;;;;;;;;;4.50;4.50;;;;;26.10;100.00;101501.56;5079539;27;51098;-51
2022/09/01 05:52:25;;;;;;;;;6.00;5.00;;;;;26.06;100.00;101491.75;5079621;27;51134;-47
2022/09/01 05:55:09;;;;;;;;;6.75;5.25;;;;;26.02;100.00;101487.47;5079564;27;51412;-47
2022/09/01 05:57:54;;;;;;;;;8.25;5.00;;;;;26.06;100.00;101491.75;5079754;27;51203;-49
2022/09/01 06:00:41;;;;;;;;;9.25;7.25;;;;;26.08;100.00;101483.50;5079449;27;51221;-50
2022/09/01 06:03:26;;;;;;;;;6.25;4.75;;;;;26.12;100.00;101490.56;5079181;27;51066;-50
2022/09/01 06:06:11;;;;;;;;;9.25;7.25;;;;;26.17;100.00;101493.00;5080095;27;51237;-48
2022/09/01 06:08:57;;;;;;;;;6.75;5.25;;;;;26.20;100.00;101485.53;5079310;27;51137;-47
2022/09/01 06:11:42;;;;;;;;;9.00;6.00;;;;;26.27;100.00;101486.06;5064140;27;51474;-48
2022/09/01 06:14:27;;;;;;;;;9.75;5.25;;;;;26.32;100.00;101491.25;5079455;27;51229;-48
2022/09/01 06:17:15;;;;;;;;;8.25;6.50;;;;;26.38;100.00;101497.22;5079720;27;51020;-49
2022/09/01 06:19:59;;;;;;;;;8.50;4.25;;;;;26.44;100.00;101504.16;5079391;27;51484;-48
2022/09/01 06:22:44;;;;;;;;;5.00;5.00;;;;;26.47;100.00;101497.66;5079357;27;51238;-49
2022/09/01 06:25:29;;;;;;;;;14.75;10.00;;;;;26.56;100.00;101492.53;5079732;27;51167;-50
2022/09/01 06:28:18;;;;;;;;;8.25;6.75;;;;;26.72;100.00;101494.38;5084714;27;51154;-48
2022/09/01 06:31:05;;;;;;;;;12.00;8.00;;;;;26.76;100.00;101485.00;5100092;27;51039;-51
2022/09/01 06:33:52;;;;;;;;;9.50;7.25;;;;;26.97;100.00;101493.78;5099362;27;51416;-48
2022/09/01 06:36:39;;;;;;;;;9.00;7.00;;;;;27.17;100.00;101497.13;5099703;27;51216;-48
2022/09/01 06:39:25;;;;;;;;;6.25;5.25;;;;;27.33;100.00;101488.84;5101239;27;51106;-47
2022/09/01 06:42:12;;;;;;;;;10.50;6.75;;;;;27.54;100.00;101492.09;5103761;27;51032;-47
2022/09/01 06:44:56;;;;;;;;;9.75;6.25;;;;;27.94;100.00;101496.88;5103266;27;51411;-50
2022/09/01 06:47:46;;;;;;;;;6.25;5.75;;;;;28.48;100.00;101493.31;5103779;27;51224;-47
2022/09/01 06:50:30;;;;;;;;;8.50;6.75;;;;;28.95;100.00;101496.53;5103397;27;51065;-48
2022/09/01 06:53:17;;;;;;;;;10.75;3.75;;;;;29.33;100.00;101497.59;5103109;27;51102;-51
2022/09/01 06:56:02;;;;;;;;;14.75;6.25;;;;;29.73;100.00;101497.47;5087822;27;51105;-48
2022/09/01 06:58:47;;;;;;;;;11.00;7.00;;;;;30.08;100.00;101499.47;5082612;27;51626;-50
2022/09/01 07:01:32;;;;;;;;;4.75;4.75;;;;;30.36;100.00;101489.19;5094584;27;51173;-47
2022/09/01 07:04:18;;;;;;;;;7.25;7.25;;;;;30.57;100.00;101496.81;5102851;27;51213;-48
2022/09/01 07:07:04;;;;;;;;;4.75;4.50;;;;;30.86;100.00;101499.16;5103216;27;51073;-48
2022/09/01 07:09:49;;;;;;;;;13.00;6.50;;;;;31.21;100.00;101512.91;5103017;27;51536;-47
2022/09/01 07:12:34;;;;;;;;;5.00;5.00;;;;;31.57;100.00;101503.69;5103047;27;51363;-49
2022/09/01 07:15:18;;;;;;;;;6.50;4.75;;;;;31.92;100.00;101511.84;5102852;27;51142;-47
2022/09/01 07:18:03;;;;;;;;;3.75;3.75;;;;;32.20;100.00;101512.28;5096435;27;51058;-49
2022/09/01 07:20:47;;;;;;;;;8.25;5.25;;;;;32.54;100.00;101511.38;5082644;27;51112;-49
2022/09/01 07:23:32;;;;;;;;;6.00;5.75;;;;;32.88;100.00;101513.97;5082488;27;51065;-48
2022/09/01 07:26:18;;;;;;;;;7.00;5.00;;;;;32.72;100.00;101519.91;5082330;27;51061;-48
2022/09/01 07:29:05;;;;;;;;;7.75;5.00;;;;;32.75;100.00;101515.00;5078908;27;51075;-48
2022/09/01 07:31:51;;;;;;;;;6.00;5.50;;;;;32.90;100.00;101525.75;5077136;27;50982;-47
2022/09/01 07:34:37;;;;;;;;;9.00;4.75;;;;;33.07;100.00;101532.56;5082122;27;51203;-47
2022/09/01 07:37:22;;;;;;;;;10.00;4.50;;;;;33.25;100.00;101526.41;5081993;27;51270;-49
2022/09/01 07:40:10;;;;;;;;;10.75;7.25;;;;;33.34;100.00;101529.28;5102666;27;51050;-51
2022/09/01 07:42:56;;;;;;;;;6.25;3.50;;;;;33.19;100.00;101525.97;5102416;27;51162;-50
2022/09/01 07:45:46;;;;;;;;;6.50;5.00;;;;;33.40;100.00;101530.63;5102671;27;51150;-50
2022/09/01 07:48:31;;;;;;;;;9.50;5.25;;;;;33.64;100.00;101522.03;5102113;27;51141;-49
2022/09/01 07:51:18;;;;;;;;;5.75;3.00;;;;;34.01;100.00;101536.31;5101989;27;51304;-49
2022/09/01 07:54:04;;;;;;;;;8.25;4.00;;;;;33.93;100.00;101531.47;5094870;27;51102;-50
2022/09/01 07:56:49;;;;;;;;;7.75;5.00;;;;;33.59;100.00;101551.03;5082101;27;51026;-51
2022/09/01 07:59:34;;;;;;;;;10.25;6.00;;;;;33.18;100.00;101543.53;5081282;27;51518;-49
2022/09/01 08:02:19;;;;;;;;;6.00;5.00;;;;;32.86;100.00;101558.22;5098542;27;51475;-49
2022/09/01 08:05:08;;;;;;;;;8.00;6.00;;;;;32.42;100.00;101560.06;5102061;27;51403;-47
2022/09/01 08:07:53;;;;;;;;;11.00;6.00;;;;;32.02;100.00;101571.63;5101795;27;51136;-48
2022/09/01 08:10:41;;;;;;;;;6.00;6.00;;;;;31.65;100.00;101580.97;5101978;27;51167;-49
2022/09/01 08:13:26;;;;;;;;;30.00;28.00;;;;;31.32;100.00;101586.28;5101762;27;51165;-47
2022/09/01 08:16:11;;;;;;;;;23.00;19.00;;;;;31.15;100.00;101584.88;5102172;27;51502;-48
2022/09/01 08:18:56;;;;;;;;;37.25;32.25;;;;;31.09;100.00;101581.69;5101676;27;51169;-49
2022/09/01 08:21:41;;;;;;;;;24.00;20.50;;;;;31.09;100.00;101585.28;5102258;27;51154;-48
2022/09/01 08:24:25;;;;;;;;;12.00;9.50;;;;;31.09;100.00;101588.03;5093007;27;51428;-48
2022/09/01 08:27:09;;;;;;;;;9.75;8.50;;;;;30.97;100.00;101592.63;5101894;27;51054;-50
2022/09/01 08:29:54;;;;;;;;;7.00;5.25;;;;;30.85;100.00;101583.44;5101778;27;51098;-48
2022/09/01 08:32:41;;;;;;;;;5.00;3.00;;;;;30.73;100.00;101589.91;5101276;27;51032;-47
2022/09/01 08:35:30;;;;;;;;;6.00;5.75;;;;;30.59;100.00;101599.16;5101680;27;51002;-48
2022/09/01 08:38:14;;;;;;;;;8.50;6.50;;;;;30.48;100.00;101602.69;5101620;27;51587;-49
2022/09/01 08:40:59;;;;;;;;;7.25;5.50;;;;;30.45;100.00;101609.28;5100535;27;51348;-47
2022/09/01 08:44:09;;;;;;;;;14.75;9.25;;;;;30.45;100.00;101613.88;5070029;27;51336;-49
2022/09/01 08:47:19;;;;;;;;;13.75;9.50;;;;;30.48;100.00;101602.69;5079876;27;51079;-48
2022/09/01 08:50:05;;;;;;;;;12.00;7.50;;;;;30.55;100.00;101604.00;5100330;27;51036;-48
2022/09/01 08:53:01;;;;;;;;;12.00;7.00;;;;;30.58;100.00;101605.66;5067111;27;51107;-48
2022/09/01 08:55:49;;;;;;;;;6.75;5.50;;;;;30.38;100.00;101627.19;5094300;27;51176;-49
2022/09/01 08:58:34;;;;;;;;;10.25;6.50;;;;;30.05;100.00;101609.50;5084922;27;51580;-51
2022/09/01 09:01:34;;;;;;;;;13.25;8.00;;;;;30.03;100.00;101630.69;5099811;27;51133;-47
2022/09/01 09:04:25;;;;;;;;;11.00;7.00;;;;;29.94;100.00;101632.22;5059922;28;51205;-47
2022/09/01 09:07:47;;;;;;;;;7.00;7.00;;;;;29.98;100.00;101639.25;5059776;28;51426;-48
2022/09/01 09:10:51;;;;;;;;;8.00;7.00;;;;;30.13;100.00;101642.75;5059404;28;51204;-49
2022/09/01 09:14:01;;;;;;;;;12.00;9.25;;;;;30.30;100.00;101648.84;5059550;28;51210;-47
2022/09/01 09:16:47;;;;;;;;;9.50;6.00;;;;;30.34;100.00;101650.41;5058191;28;51112;-48
2022/09/01 09:19:41;;;;;;;;;10.25;8.50;;;;;30.38;100.00;101642.81;5059616;28;51064;-51
2022/09/01 09:22:25;;;;;;;;;10.00;9.25;;;;;30.45;100.00;101639.50;5058261;28;51342;-47
2022/09/01 09:25:13;;;;;;;;;4.50;4.00;;;;;30.49;100.00;101636.50;5059657;28;51205;-45
2022/09/01 09:27:58;;;;;;;;;28.75;24.50;;;;;30.54;100.00;101637.09;5059101;28;51430;-46
2022/09/01 09:30:43;;;;;;;;;8.75;7.25;;;;;30.80;100.00;101635.13;5059685;28;51149;-46
2022/09/01 09:33:37;;;;;;;;;9.50;6.00;;;;;31.12;100.00;101636.44;5071604;27;51227;-46
2022/09/01 09:36:29;;;;;;;;;7.25;3.50;;;;;31.47;100.00;101641.94;5079490;27;51231;-46
2022/09/01 09:39:17;;;;;;;;;7.75;7.75;;;;;31.75;100.00;101639.78;5080176;27;51199;-45
2022/09/01 09:42:08;;;;;;;;;15.75;8.00;;;;;31.99;100.00;101630.56;5075612;27;51156;-47
2022/09/01 09:44:54;;;;;;;;;5.00;5.00;;;;;32.10;100.00;101632.44;5059084;28;51052;-47
2022/09/01 09:47:42;;;;;;;;;7.75;7.00;;;;;32.24;100.00;101631.31;5059260;28;51787;-47
2022/09/01 09:50:36;;;;;;;;;6.25;6.00;;;;;32.41;100.00;101630.81;5059547;28;51202;-45
2022/09/01 09:53:26;;;;;;;;;6.50;5.50;;;;;32.51;100.00;101633.69;5062454;28;51203;-46
2022/09/01 09:56:14;;;;;;;;;6.25;6.25;;;;;32.57;100.00;101626.78;5059587;28;51243;-47
2022/09/01 09:58:59;;;;;;;;;9.00;5.50;;;;;32.56;100.00;101628.66;5059846;28;51506;-49
2022/09/01 10:01:43;;;;;;;;;7.25;4.75;;;;;32.55;100.00;101629.69;5059475;28;51139;-46
2022/09/01 10:04:36;;;;;;;;;9.25;6.00;;;;;32.50;100.00;101628.31;5079608;27;51117;-46
2022/09/01 15:13:59;;;;;;;;;9.25;6.25;;;;;29.35;100.00;101403.31;4899746;27;2451102;-46
2022/09/01 15:16:45;;;;;;;;;8.25;5.00;;;;;29.49;100.00;101404.16;6131201;23;51051;-46
2022/09/01 15:19:30;;;;;;;;;8.25;4.75;;;;;29.55;100.00;101405.56;6131116;23;51372;-49
2022/09/01 15:22:15;;;;;;;;;5.75;4.50;;;;;29.74;100.00;101408.69;6131801;23;51059;-46
2022/09/01 15:25:00;;;;;;;;;9.75;6.25;;;;;29.91;100.00;101401.06;6131506;23;51340;-46
2022/09/01 15:27:45;;;;;;;;;6.00;5.00;;;;;29.96;100.00;101398.88;6131247;23;51190;-46
2022/09/01 15:30:30;;;;;;;;;7.00;5.00;;;;;29.91;100.00;101398.34;6131150;23;51378;-46
2022/09/01 15:33:15;;;;;;;;;4.00;3.75;;;;;29.84;100.00;101397.91;6130327;23;51130;-47
2022/09/01 15:35:59;;;;;;;;;3.75;3.00;;;;;29.88;100.00;101404.94;6132726;23;51449;-46
2022/09/01 15:38:44;;;;;;;;;11.00;6.00;;;;;29.94;100.00;101404.50;6131552;23;50977;-46
2022/09/01 15:41:32;;;;;;;;;8.00;5.00;;;;;29.91;100.00;101399.19;6131773;23;51115;-46
2022/09/01 15:44:16;;;;;;;;;5.00;3.50;;;;;29.88;100.00;101401.31;6126976;23;51392;-47
2022/09/01 15:47:00;;;;;;;;;7.75;6.00;;;;;29.83;100.00;101397.06;6131790;23;51028;-49
2022/09/01 15:49:45;;;;;;;;;8.25;8.25;;;;;29.83;100.00;101388.81;6131315;23;51355;-47
2022/09/01 15:52:29;;;;;;;;;10.25;6.75;;;;;29.84;100.00;101390.53;6130746;23;51087;-48
2022/09/01 15:55:14;;;;;;;;;8.25;7.00;;;;;29.91;100.00;101390.97;6132647;23;50983;-47
2022/09/01 15:57:59;;;;;;;;;13.25;8.50;;;;;29.93;100.00;101390.88;6131747;23;51466;-47
2022/09/01 16:00:44;;;;;;;;;5.50;5.50;;;;;29.92;100.00;101387.22;6131321;23;51526;-47
2022/09/01 16:03:30;;;;;;;;;8.50;4.50;;;;;29.89;100.00;101392.06;6132066;23;51564;-47
2022/09/01 16:06:15;;;;;;;;;8.25;4.50;;;;;29.84;100.00;101396.03;6132480;23;51051;-49
2022/09/01 16:08:59;;;;;;;;;8.50;7.25;;;;;29.84;100.00;101400.66;6131733;23;51440;-47
2022/09/01 16:11:44;;;;;;;;;7.00;5.50;;;;;29.80;100.00;101408.25;6130813;23;51103;-49
2022/09/01 16:14:30;;;;;;;;;6.50;4.00;;;;;29.78;100.00;101412.09;6125924;23;51215;-47
2022/09/01 16:17:43;;;;;;;;;12.50;9.50;;;;;29.71;100.00;101399.81;6125143;23;51087;-47
2022/09/01 16:20:41;;;;;;;;;11.75;8.00;;;;;29.60;100.00;101398.75;6125270;23;50997;-47
2022/09/01 16:23:39;;;;;;;;;12.25;9.75;;;;;29.53;100.00;101411.16;6122852;23;51104;-47
2022/09/01 16:26:24;;;;;;;;;8.00;8.00;;;;;29.51;100.00;101407.66;6123204;23;51151;-46
2022/09/01 16:29:14;;;;;;;;;10.25;9.50;;;;;29.51;100.00;101410.41;6125031;23;51387;-48
2022/09/01 16:31:58;;;;;;;;;9.50;8.00;;;;;29.51;100.00;101414.03;6123396;23;51085;-47
2022/09/01 16:34:46;;;;;;;;;13.25;7.75;;;;;29.47;100.00;101415.25;6124814;23;51139;-49
2022/09/01 16:37:38;;;;;;;;;14.25;10.25;;;;;29.44;100.00;101418.19;6124311;23;51137;-46
2022/09/01 16:40:44;;;;;;;;;11.00;8.50;;;;;29.43;100.00;101423.81;6124598;23;51390;-47
2022/09/01 16:43:34;;;;;;;;;12.50;10.75;;;;;29.39;100.00;101417.66;6122328;23;51124;-46
2022/09/01 16:46:44;;;;;;;;;10.00;8.00;;;;;29.33;100.00;101419.00;6124104;23;51040;-48
2022/09/01 16:50:04;;;;;;;;;7.75;6.50;;;;;29.29;100.00;101416.56;6123354;23;51189;-47
2022/09/01 16:53:14;;;;;;;;;10.25;8.00;;;;;29.20;100.00;101412.59;6142906;23;51044;-48
2022/09/01 16:56:08;;;;;;;;;11.00;6.75;;;;;29.19;100.00;101422.72;6123741;23;51256;-46
2022/09/01 16:59:31;;;;;;;;;11.25;7.25;;;;;29.13;100.00;101423.13;6124642;23;50981;-47
2022/09/01 17:02:44;;;;;;;;;10.25;9.00;;;;;29.06;100.00;101421.81;6123695;23;51327;-47
2022/09/01 17:05:40;;;;;;;;;10.25;7.25;;;;;28.99;100.00;101423.25;6124672;23;50998;-47
2022/09/01 17:08:30;;;;;;;;;11.25;8.00;;;;;28.94;100.00;101423.59;6123001;23;51290;-47
2022/09/01 17:11:44;;;;;;;;;10.75;10.00;;;;;28.92;100.00;101431.03;6124286;23;51021;-47
2022/09/01 17:14:46;;;;;;;;;10.00;7.00;;;;;28.85;100.00;101425.09;6120211;23;51088;-47
2022/09/01 17:17:37;;;;;;;;;12.00;8.00;;;;;28.79;100.00;101428.25;6124486;23;51340;-47
2022/09/01 17:20:28;;;;;;;;;12.75;9.00;;;;;28.73;100.00;101436.91;6124962;23;51416;-49
2022/09/01 17:23:20;;;;;;;;;12.00;9.50;;;;;28.64;100.00;101443.00;6123844;23;51018;-47
2022/09/01 17:26:14;;;;;;;;;11.75;10.00;;;;;28.60;100.00;101437.72;6123941;23;51058;-47
2022/09/01 17:29:23;;;;;;;;;10.50;8.00;;;;;28.55;100.00;101445.41;6124276;23;51336;-47
2022/09/01 17:32:28;;;;;;;;;16.75;8.25;;;;;28.53;100.00;101443.72;6125613;23;51082;-47
2022/09/01 17:35:15;;;;;;;;;10.50;7.00;;;;;28.45;100.00;101447.00;6125145;23;51344;-46
2022/09/01 17:38:18;;;;;;;;;9.75;8.75;;;;;28.41;100.00;101448.19;6124753;23;51027;-47
2022/09/01 17:41:17;;;;;;;;;8.75;7.50;;;;;28.37;100.00;101458.47;6125812;23;50967;-47
2022/09/01 17:44:29;;;;;;;;;9.75;8.50;;;;;28.31;100.00;101456.13;6124083;23;51349;-46
2022/09/01 17:47:29;;;;;;;;;10.25;8.75;;;;;28.29;100.00;101466.34;6124945;23;51055;-46
2022/09/01 17:50:19;;;;;;;;;11.25;10.00;;;;;28.26;100.00;101463.78;6102457;22;51075;-49
2022/09/01 17:53:14;;;;;;;;;8.25;7.25;;;;;28.21;100.00;101464.09;6125389;23;51059;-46
2022/09/01 17:56:20;;;;;;;;;13.75;9.00;;;;;28.18;100.00;101471.66;6125149;23;51123;-47
2022/09/01 17:59:05;;;;;;;;;7.50;5.50;;;;;28.13;100.00;101474.69;6125327;23;51089;-49
2022/09/01 18:02:14;;;;;;;;;8.25;6.25;;;;;28.08;100.00;101472.25;6124778;23;51294;-47
2022/09/01 18:05:12;;;;;;;;;8.50;8.50;;;;;28.07;100.00;101472.31;6124486;23;51028;-48
2022/09/01 18:08:12;;;;;;;;;13.75;9.75;;;;;28.07;100.00;101469.56;6118612;23;51116;-48
2022/09/01 18:11:14;;;;;;;;;12.00;11.25;;;;;28.03;100.00;101463.44;6122983;23;51079;-50
2022/09/01 18:14:28;;;;;;;;;14.00;11.25;;;;;28.02;100.00;101469.88;6123907;23;51048;-45
2022/09/01 18:17:30;;;;;;;;;12.00;12.00;;;;;27.95;100.00;101457.59;6168367;23;51035;-47
2022/09/01 18:20:27;;;;;;;;;11.00;9.25;;;;;27.90;100.00;101463.38;6124841;23;51020;-48
2022/09/01 18:23:15;;;;;;;;;9.00;5.00;;;;;27.84;100.00;101448.25;6124373;23;51091;-49
2022/09/01 18:26:05;;;;;;;;;13.75;10.50;;;;;27.88;100.00;101464.47;6123663;23;51067;-50
2022/09/01 18:28:51;;;;;;;;;12.25;10.75;;;;;27.85;100.00;101457.31;6123427;23;51055;-46
2022/09/01 18:32:04;;;;;;;;;11.75;8.75;;;;;27.86;100.00;101460.94;6123707;23;51141;-46
2022/09/01 18:35:01;;;;;;;;;12.25;7.00;;;;;27.80;100.00;101460.34;6123547;23;51110;-47
2022/09/01 18:37:52;;;;;;;;;9.00;9.00;;;;;27.79;100.00;101468.66;6124530;23;51079;-46
2022/09/01 18:40:45;;;;;;;;;19.00;13.25;;;;;27.78;100.00;101475.97;6123876;23;51082;-49
2022/09/01 18:43:42;;;;;;;;;14.25;10.00;;;;;27.77;100.00;101471.50;6123867;23;51447;-47
2022/09/01 18:46:49;;;;;;;;;10.75;8.75;;;;;27.75;100.00;101475.28;6124174;23;50844;-47
2022/09/01 18:49:36;;;;;;;;;12.25;8.50;;;;;27.74;100.00;101476.28;6124204;23;51032;-47
2022/09/01 18:52:52;;;;;;;;;12.25;11.00;;;;;27.75;100.00;101470.72;6123653;23;51170;-48
2022/09/01 18:55:45;;;;;;;;;17.75;9.50;;;;;27.73;100.00;101482.72;6122909;23;51064;-49
2022/09/01 18:58:52;;;;;;;;;10.25;8.75;;;;;27.72;100.00;101486.47;6123551;23;51100;-48
2022/09/01 19:01:51;;;;;;;;;14.50;11.25;;;;;27.71;100.00;101482.81;6122895;23;51040;-47
2022/09/01 19:04:41;;;;;;;;;17.50;11.50;;;;;27.72;100.00;101494.66;6123332;23;51449;-50
2022/09/01 19:08:08;;;;;;;;;11.00;7.00;;;;;27.72;100.00;101495.53;6123219;23;51259;-47
2022/09/01 19:11:14;;;;;;;;;13.50;10.00;;;;;27.66;100.00;101490.47;6123516;23;50952;-48
2022/09/01 19:14:20;;;;;;;;;10.50;8.75;;;;;27.68;100.00;101496.69;6123242;23;51032;-49
2022/09/01 19:17:20;;;;;;;;;15.50;9.50;;;;;27.67;100.00;101508.63;6123566;23;51448;-48
2022/09/01 19:20:18;;;;;;;;;15.50;9.00;;;;;27.63;100.00;101510.66;6123815;23;51100;-47
2022/09/01 19:23:31;;;;;;;;;14.75;7.50;;;;;27.67;100.00;101514.97;6122522;23;51394;-47
2022/09/01 19:26:21;;;;;;;;;10.75;8.25;;;;;27.67;100.00;101525.03;6123402;23;50995;-48
2022/09/01 19:29:15;;;;;;;;;8.50;6.25;;;;;27.64;100.00;101512.41;6123558;23;51031;-48
2022/09/01 19:32:04;;;;;;;;;12.50;7.75;;;;;27.65;100.00;101518.78;6123322;23;51462;-48
2022/09/01 19:34:57;;;;;;;;;15.25;12.25;;;;;27.62;100.00;101521.69;6122284;23;51119;-47
2022/09/01 19:37:43;;;;;;;;;8.00;7.75;;;;;27.58;100.00;101514.66;6122726;23;51418;-49
2022/09/01 19:40:33;;;;;;;;;9.00;7.75;;;;;27.58;100.00;101528.31;6122245;23;51159;-51
2022/09/01 19:43:19;;;;;;;;;12.50;11.50;;;;;27.55;100.00;101518.47;6121983;23;51405;-47
2022/09/01 19:46:21;;;;;;;;;11.75;10.00;;;;;27.60;100.00;101540.94;6101708;23;51047;-48
2022/09/01 19:49:14;;;;;;;;;12.00;8.50;;;;;27.60;100.00;101535.47;6123173;23;51185;-46
2022/09/01 19:52:04;;;;;;;;;15.50;11.00;;;;;27.59;100.00;101532.81;6124403;23;51078;-47
2022/09/01 19:55:04;;;;;;;;;12.00;10.50;;;;;27.53;100.00;101524.03;6125037;23;51088;-48
2022/09/01 19:57:52;;;;;;;;;11.25;7.00;;;;;27.56;100.00;101531.16;6125102;23;51376;-48
2022/09/01 20:00:51;;;;;;;;;10.50;8.25;;;;;27.52;100.00;101527.75;6125236;23;51341;-47
2022/09/01 20:03:39;;;;;;;;;9.00;7.00;;;;;27.50;100.00;101532.44;6124058;23;51210;-50
2022/09/01 20:06:36;;;;;;;;;11.75;6.50;;;;;27.50;100.00;101534.28;6124001;23;51097;-47
2022/09/01 20:09:32;;;;;;;;;8.00;7.25;;;;;27.49;100.00;101538.00;6123385;23;51463;-47
2022/09/01 20:12:46;;;;;;;;;8.25;6.00;;;;;27.46;100.00;101544.50;6125295;23;51136;-48